createdAt,value
2019-01-14T00:06:55.866Z,30.67
2019-01-14T00:09:31.231Z,28.57
2019-01-14T00:11:57.068Z,33.23
2019-01-14T00:14:26.544Z,26.67
2019-01-14T00:16:56.065Z,29.23
2019-01-14T00:19:25.510Z,35.80
2019-01-14T00:21:54.992Z,30.23
2019-01-14T00:24:24.448Z,34.10
2019-01-14T00:26:54.000Z,36.73
2019-01-14T00:29:24.498Z,24.67
2019-01-14T00:31:53.986Z,35.40
2019-01-14T00:34:23.818Z,24.40
2019-01-14T00:36:53.380Z,34.03
2019-01-14T00:39:22.852Z,26.43
2019-01-14T00:41:52.414Z,32.30
2019-01-14T00:44:21.888Z,31.37
2019-01-14T00:46:51.373Z,34.77
2019-01-14T00:49:20.969Z,29.07
2019-01-14T00:51:50.401Z,36.40
2019-01-14T00:54:19.912Z,29.73
2019-01-14T00:56:51.074Z,30.20
2019-01-14T00:59:20.635Z,31.07
2019-01-14T01:01:50.072Z,25.23
2019-01-14T01:04:19.550Z,36.60
2019-01-14T01:06:49.100Z,23.23
2019-01-14T01:09:18.593Z,25.83
2019-01-14T01:11:48.092Z,27.07
2019-01-14T01:14:17.584Z,23.97
2019-01-14T01:16:47.246Z,31.77
2019-01-14T01:19:16.775Z,29.33
2019-01-14T01:21:46.382Z,28.30
2019-01-14T01:24:15.829Z,30.10
2019-01-14T01:26:45.244Z,29.67
2019-01-14T01:29:14.716Z,25.13
2019-01-14T01:31:44.417Z,27.07
2019-01-14T01:34:13.822Z,38.27
2019-01-14T01:36:43.398Z,33.00
2019-01-14T01:39:12.864Z,27.87
2019-01-14T01:41:42.359Z,31.77
2019-01-14T01:44:11.854Z,38.17
2019-01-14T01:46:41.366Z,29.03
2019-01-14T01:49:10.908Z,29.97
2019-01-14T01:51:41.392Z,24.10
2019-01-14T01:54:10.920Z,25.73
2019-01-14T01:56:40.428Z,31.47
2019-01-14T01:59:09.868Z,28.67
2019-01-14T02:01:39.654Z,23.30
2019-01-14T02:04:09.162Z,23.93
2019-01-14T02:06:39.205Z,27.80
2019-01-14T02:09:08.928Z,32.37
2019-01-14T02:11:39.454Z,34.40
2019-01-14T02:14:09.275Z,37.20
2019-01-14T02:16:38.934Z,30.30
2019-01-14T02:19:08.502Z,38.23
2019-01-14T02:21:38.037Z,35.60
2019-01-14T02:24:07.440Z,28.60
2019-01-14T02:26:36.956Z,32.33
2019-01-14T02:29:06.571Z,34.00
2019-01-14T02:31:36.141Z,30.70
2019-01-14T02:34:05.610Z,25.13
2019-01-14T02:36:35.215Z,28.23
2019-01-14T02:39:07.445Z,37.40
2019-01-14T02:41:36.957Z,25.53
2019-01-14T02:44:06.536Z,29.03
2019-01-14T02:46:36.013Z,27.13
2019-01-14T02:49:05.653Z,34.03
2019-01-14T02:51:35.068Z,32.40
2019-01-14T02:54:04.603Z,33.97
2019-01-14T02:56:35.778Z,34.53
2019-01-14T02:59:05.310Z,31.40
2019-01-14T03:01:34.809Z,37.07
2019-01-14T03:04:04.519Z,29.20
2019-01-14T03:06:33.912Z,24.57
2019-01-14T03:09:07.496Z,36.13
2019-01-14T03:11:38.641Z,30.70
2019-01-14T03:14:09.860Z,29.77
2019-01-14T03:16:39.392Z,24.50
2019-01-14T03:19:10.459Z,27.67
2019-01-14T03:21:41.637Z,33.37
2019-01-14T03:24:12.770Z,32.23
2019-01-14T03:26:43.880Z,22.83
2019-01-14T03:29:15.001Z,36.53
2019-01-14T03:31:45.309Z,28.60
2019-01-14T03:34:16.421Z,35.07
2019-01-14T03:36:47.585Z,35.93
2019-01-14T03:39:18.161Z,31.77
2019-01-14T03:41:47.653Z,36.27
2019-01-14T03:44:18.804Z,28.63
2019-01-14T03:46:48.373Z,37.50
2019-01-14T03:49:17.933Z,32.73
2019-01-14T03:51:47.473Z,27.60
2019-01-14T03:54:17.159Z,31.27
2019-01-14T03:56:46.625Z,27.50
2019-01-14T03:59:16.102Z,32.97
2019-01-14T04:01:45.644Z,36.80
2019-01-14T04:04:15.314Z,36.33
2019-01-14T04:06:44.835Z,35.93
2019-01-14T04:09:14.385Z,33.03
2019-01-14T04:11:45.493Z,32.60
2019-01-14T04:14:14.911Z,31.77
2019-01-14T04:16:44.421Z,33.17
2019-01-14T04:19:13.831Z,37.87
2019-01-14T04:21:43.351Z,35.23
2019-01-14T04:24:12.833Z,31.97
2019-01-14T04:26:42.295Z,33.83
2019-01-14T04:29:11.879Z,27.90
2019-01-14T04:31:41.363Z,33.10
2019-01-14T04:34:10.733Z,27.77
2019-01-14T04:36:40.333Z,25.33
2019-01-14T04:39:10.384Z,29.70
2019-01-14T04:41:40.029Z,28.87
2019-01-14T04:44:09.457Z,25.57
2019-01-14T04:46:38.932Z,28.80
2019-01-14T04:49:08.865Z,19.93
2019-01-14T04:51:38.294Z,32.40
2019-01-14T04:54:07.807Z,37.83
2019-01-14T04:56:37.274Z,29.63
2019-01-14T04:59:06.857Z,22.83
2019-01-14T05:01:36.329Z,31.90
2019-01-14T05:04:05.723Z,27.77
2019-01-14T05:06:35.342Z,22.80
2019-01-14T05:09:07.256Z,21.73
2019-01-14T05:11:36.721Z,29.23
2019-01-14T05:14:06.147Z,24.30
2019-01-14T05:16:35.678Z,28.00
2019-01-14T05:19:05.121Z,27.43
2019-01-14T05:21:34.661Z,27.47
2019-01-14T05:24:04.502Z,26.10
2019-01-14T05:26:34.061Z,31.60
2019-01-14T05:29:03.613Z,23.03
2019-01-14T05:31:33.073Z,26.50
2019-01-14T05:34:02.543Z,32.87
2019-01-14T05:36:32.032Z,22.60
2019-01-14T05:39:01.501Z,30.23
2019-01-14T05:41:30.989Z,25.80
2019-01-14T05:44:00.560Z,29.37
2019-01-14T05:46:30.314Z,32.60
2019-01-14T05:48:59.831Z,26.33
2019-01-14T05:51:29.273Z,22.90
2019-01-14T05:53:58.792Z,27.77
2019-01-14T05:56:28.219Z,27.67
2019-01-14T05:58:57.710Z,27.53
2019-01-14T06:01:27.145Z,35.33
2019-01-14T06:03:56.600Z,37.07
2019-01-14T06:06:26.100Z,35.30
2019-01-14T06:08:55.573Z,24.53
2019-01-14T06:11:24.977Z,28.17
2019-01-14T06:13:54.497Z,26.27
2019-01-14T06:16:23.928Z,23.27
2019-01-14T06:18:53.461Z,28.17
2019-01-14T06:21:23.038Z,30.80
2019-01-14T06:23:52.451Z,29.53
2019-01-14T06:26:21.937Z,24.93
2019-01-14T06:28:51.372Z,25.47
2019-01-14T06:31:20.832Z,26.43
2019-01-14T06:33:50.297Z,27.20
2019-01-14T06:36:19.837Z,30.00
2019-01-14T06:38:50.968Z,34.23
2019-01-14T06:41:20.439Z,28.17
2019-01-14T06:43:49.921Z,30.23
2019-01-14T06:46:19.310Z,22.87
2019-01-14T06:48:49.103Z,32.93
2019-01-14T06:51:18.579Z,32.87
2019-01-14T06:53:48.024Z,27.17
2019-01-14T06:56:17.553Z,28.80
2019-01-14T06:58:47.145Z,27.10
2019-01-14T07:01:16.619Z,27.60
2019-01-14T07:03:46.241Z,22.97
2019-01-14T07:06:15.813Z,31.23
2019-01-14T07:08:45.226Z,21.33
2019-01-14T07:11:15.945Z,22.87
2019-01-14T07:13:45.531Z,28.00
2019-01-14T07:16:15.379Z,34.33
2019-01-14T07:18:44.835Z,37.00
2019-01-14T07:21:14.349Z,21.17
2019-01-14T07:23:43.972Z,22.87
2019-01-14T07:26:13.438Z,24.97
2019-01-14T07:28:44.617Z,30.73
2019-01-14T07:31:14.271Z,26.57
2019-01-14T07:33:43.795Z,32.13
2019-01-14T07:36:13.365Z,31.83
2019-01-14T07:38:42.849Z,34.17
2019-01-14T07:41:12.322Z,25.13
2019-01-14T07:43:41.764Z,26.80
2019-01-14T07:46:11.207Z,27.57
2019-01-14T07:48:40.629Z,30.13
2019-01-14T07:51:10.269Z,24.47
2019-01-14T07:53:39.660Z,36.67
2019-01-14T07:56:09.493Z,26.57
2019-01-14T07:58:39.027Z,30.27
2019-01-14T08:01:08.423Z,29.27
2019-01-14T08:03:37.959Z,28.97
2019-01-14T08:06:07.334Z,31.63
2019-01-14T08:08:36.832Z,27.17
2019-01-14T08:11:06.261Z,34.10
2019-01-14T08:13:37.384Z,30.83
2019-01-14T08:16:06.933Z,29.57
2019-01-14T08:18:36.414Z,31.20
2019-01-14T08:21:05.974Z,31.77
2019-01-14T08:23:37.101Z,26.83
2019-01-14T08:26:06.548Z,32.90
2019-01-14T08:28:36.076Z,26.43
2019-01-14T08:31:05.681Z,40.97
2019-01-14T08:33:35.656Z,29.10
2019-01-14T08:36:05.202Z,31.97
2019-01-14T08:38:34.584Z,25.27
2019-01-14T08:41:04.212Z,25.63
2019-01-14T08:43:35.492Z,25.20
2019-01-14T08:46:05.153Z,33.00
2019-01-14T08:48:34.636Z,28.73
2019-01-14T08:51:04.246Z,30.33
2019-01-14T08:53:35.426Z,26.03
2019-01-14T08:56:05.422Z,26.53
2019-01-14T08:58:34.803Z,29.00
2019-01-14T09:01:04.184Z,29.60
2019-01-14T09:03:33.754Z,28.13
2019-01-14T09:06:03.368Z,22.20
2019-01-14T09:08:32.970Z,24.60
2019-01-14T09:11:02.316Z,21.90
2019-01-14T09:13:31.814Z,21.53
2019-01-14T09:16:01.328Z,23.37
2019-01-14T09:18:31.694Z,25.50
2019-01-14T09:21:01.138Z,22.27
2019-01-14T09:23:30.662Z,16.83
2019-01-14T09:26:00.148Z,15.23
2019-01-14T09:28:29.628Z,21.57
2019-01-14T09:30:59.190Z,10.60
2019-01-14T09:33:28.716Z,19.47
2019-01-14T09:35:58.169Z,15.13
2019-01-14T09:38:27.517Z,17.70
2019-01-14T09:40:57.078Z,22.00
2019-01-14T09:43:28.171Z,18.80
2019-01-14T09:45:57.730Z,14.60
2019-01-14T09:48:27.796Z,14.37
2019-01-14T09:50:57.236Z,17.63
2019-01-14T09:53:26.716Z,14.73
2019-01-14T09:55:56.204Z,15.60
2019-01-14T09:58:27.340Z,11.57
2019-01-14T10:00:56.884Z,15.80
2019-01-14T10:03:26.302Z,9.37
2019-01-14T10:05:55.736Z,12.73
2019-01-14T10:08:25.172Z,8.20
2019-01-14T10:10:54.631Z,11.87
2019-01-14T10:13:24.294Z,12.83
2019-01-14T10:15:53.864Z,8.50
2019-01-14T10:18:23.348Z,13.70
2019-01-14T10:20:52.880Z,10.83
2019-01-14T10:23:23.405Z,11.30
2019-01-14T10:25:53.680Z,11.47
2019-01-14T10:28:24.792Z,10.77
2019-01-14T10:30:54.391Z,9.20
2019-01-14T10:33:23.940Z,7.20
2019-01-14T10:35:53.527Z,11.77
2019-01-14T10:38:23.088Z,7.60
2019-01-14T10:40:52.527Z,7.73
2019-01-14T10:43:22.094Z,13.43
2019-01-14T10:45:51.524Z,8.17
2019-01-14T10:48:20.974Z,10.20
2019-01-14T10:50:50.578Z,12.77
2019-01-14T10:53:20.050Z,13.40
2019-01-14T10:55:51.046Z,6.90
2019-01-14T10:58:20.486Z,12.43
2019-01-14T11:00:49.960Z,15.07
2019-01-14T11:03:19.338Z,7.93
2019-01-14T11:05:48.920Z,11.23
2019-01-14T11:08:18.289Z,11.40
2019-01-14T11:10:47.818Z,12.50
2019-01-14T11:13:17.360Z,9.67
2019-01-14T11:15:46.904Z,9.50
2019-01-14T11:18:16.357Z,12.57
2019-01-14T11:20:45.838Z,11.43
2019-01-14T11:23:15.392Z,7.93
2019-01-14T11:25:44.896Z,11.27
2019-01-14T11:28:14.963Z,7.03
2019-01-14T11:30:44.396Z,13.80
2019-01-14T11:33:13.952Z,9.47
2019-01-14T11:35:43.614Z,11.83
2019-01-14T11:38:35.214Z,9.23
2019-01-14T11:41:04.949Z,14.77
2019-01-14T11:43:34.375Z,17.70
2019-01-14T11:46:03.906Z,7.43
2019-01-14T11:48:33.470Z,5.87
2019-01-14T11:51:03.060Z,4.13
2019-01-14T11:53:32.620Z,6.70
2019-01-14T11:56:02.062Z,8.97
2019-01-14T11:58:31.534Z,10.80
2019-01-14T12:01:00.998Z,9.63
2019-01-14T12:03:30.532Z,12.83
2019-01-14T12:05:59.919Z,12.73
2019-01-14T12:08:29.408Z,9.53
2019-01-14T12:10:58.842Z,11.93
2019-01-14T12:13:28.228Z,15.47
2019-01-14T12:15:57.766Z,15.57
2019-01-14T12:18:28.168Z,16.90
2019-01-14T12:20:57.738Z,16.13
2019-01-14T12:23:27.152Z,19.53
2019-01-14T12:25:56.718Z,20.30
2019-01-14T12:28:26.184Z,19.67
2019-01-14T12:30:55.610Z,18.47
2019-01-14T12:33:25.136Z,17.80
2019-01-14T12:35:54.602Z,16.80
2019-01-14T12:38:24.139Z,15.00
2019-01-14T12:40:53.498Z,9.30
2019-01-14T12:43:22.951Z,9.80
2019-01-14T12:45:52.499Z,11.60
2019-01-14T12:48:22.680Z,18.00
2019-01-14T12:50:52.142Z,9.57
2019-01-14T12:53:21.683Z,14.50
2019-01-14T12:55:51.133Z,13.00
2019-01-14T12:58:20.696Z,15.67
2019-01-14T13:00:50.059Z,10.03
2019-01-14T13:03:19.561Z,15.17
2019-01-14T13:05:49.035Z,10.47
2019-01-14T13:08:18.618Z,15.23
2019-01-14T13:10:48.038Z,11.07
2019-01-14T13:13:17.500Z,9.03
2019-01-14T13:15:46.968Z,11.47
2019-01-14T13:18:16.570Z,18.00
2019-01-14T13:20:46.022Z,12.70
2019-01-14T13:23:15.576Z,16.90
2019-01-14T13:25:45.028Z,13.33
2019-01-14T13:28:14.388Z,18.13
2019-01-14T13:30:43.842Z,15.77
2019-01-14T13:33:14.991Z,12.10
2019-01-14T13:35:46.186Z,10.47
2019-01-14T13:38:17.447Z,12.13
2019-01-14T13:40:46.994Z,7.87
2019-01-14T13:43:16.462Z,9.23
2019-01-14T13:45:46.032Z,11.97
2019-01-14T13:48:15.524Z,10.20
2019-01-14T13:50:45.031Z,11.30
2019-01-14T13:53:14.455Z,12.07
2019-01-14T13:55:45.626Z,8.63
2019-01-14T13:58:15.214Z,15.13
2019-01-14T14:00:44.585Z,12.60
2019-01-14T14:03:14.054Z,11.17
2019-01-14T14:05:43.500Z,13.50
2019-01-14T14:08:13.126Z,12.30
2019-01-14T14:10:42.563Z,15.47
2019-01-14T14:13:12.080Z,13.93
2019-01-14T14:15:41.690Z,10.93
2019-01-14T14:18:11.134Z,12.13
2019-01-14T14:20:40.594Z,11.47
2019-01-14T14:23:10.982Z,15.27
2019-01-14T14:25:40.405Z,14.03
2019-01-14T14:28:09.790Z,15.13
2019-01-14T14:30:39.539Z,11.13
2019-01-14T14:33:08.982Z,7.47
2019-01-14T14:35:38.508Z,16.03
2019-01-14T14:38:08.247Z,8.00
2019-01-14T14:40:37.790Z,9.20
2019-01-14T14:43:07.375Z,13.40
2019-01-14T14:45:36.773Z,6.80
2019-01-14T14:48:06.318Z,7.47
2019-01-14T14:50:35.784Z,13.57
2019-01-14T14:53:05.339Z,5.97
2019-01-14T14:55:34.942Z,14.03
2019-01-14T14:58:04.542Z,12.50
2019-01-14T15:00:34.008Z,10.47
2019-01-14T15:03:03.712Z,8.80
2019-01-14T15:05:33.150Z,12.13
2019-01-14T15:08:02.601Z,9.87
2019-01-14T15:10:32.090Z,12.00
2019-01-14T15:13:01.472Z,9.70
2019-01-14T15:15:31.119Z,7.73
2019-01-14T15:18:00.515Z,11.37
2019-01-14T15:20:29.906Z,13.80
2019-01-14T15:22:59.355Z,10.33
2019-01-14T15:25:28.839Z,16.67
2019-01-14T15:27:58.342Z,12.03
2019-01-14T15:30:28.503Z,13.00
2019-01-14T15:32:58.078Z,8.07
2019-01-14T15:35:27.665Z,9.93
2019-01-14T15:37:57.155Z,11.43
2019-01-14T15:40:26.692Z,12.13
2019-01-14T15:42:56.181Z,12.50
2019-01-14T15:45:25.753Z,9.33
2019-01-14T15:47:55.245Z,14.30
2019-01-14T15:50:24.749Z,11.03
2019-01-14T15:52:54.267Z,10.53
2019-01-14T15:55:25.155Z,10.90
2019-01-14T15:57:54.806Z,14.23
2019-01-14T16:00:24.481Z,6.37
2019-01-14T16:02:53.977Z,14.87
2019-01-14T16:05:23.469Z,18.93
2019-01-14T16:07:52.955Z,16.20
2019-01-14T16:10:23.778Z,12.53
2019-01-14T16:12:53.227Z,13.37
2019-01-14T16:15:22.677Z,9.27
2019-01-14T16:17:52.308Z,14.10
2019-01-14T16:20:22.807Z,11.70
2019-01-14T16:22:52.669Z,12.50
2019-01-14T16:25:22.116Z,13.63
2019-01-14T16:27:51.635Z,13.73
2019-01-14T16:30:23.101Z,16.50
2019-01-14T16:32:52.675Z,13.90
2019-01-14T16:35:22.161Z,16.90
2019-01-14T16:37:51.555Z,16.23
2019-01-14T16:40:20.999Z,11.13
2019-01-14T16:42:50.457Z,14.63
2019-01-14T16:45:21.669Z,17.03
2019-01-14T16:47:51.233Z,13.73
2019-01-14T16:50:20.605Z,10.93
2019-01-14T16:52:50.239Z,12.57
2019-01-14T16:55:21.261Z,12.00
2019-01-14T16:57:50.731Z,15.33
2019-01-14T17:00:20.581Z,12.90
2019-01-14T17:02:49.961Z,13.63
2019-01-14T17:05:19.564Z,19.80
2019-01-14T17:07:48.949Z,19.70
2019-01-14T17:10:24.982Z,16.10
2019-01-14T17:12:49.699Z,16.83
2019-01-14T17:15:19.201Z,23.13
2019-01-14T17:17:48.621Z,11.37
2019-01-14T17:20:19.439Z,20.60
2019-01-14T17:22:48.968Z,15.73
2019-01-14T17:25:18.472Z,21.63
2019-01-14T17:27:48.053Z,17.33
2019-01-14T17:30:17.549Z,16.80
2019-01-14T17:32:46.973Z,17.63
2019-01-14T17:35:16.544Z,18.17
2019-01-14T17:37:46.040Z,16.70
2019-01-14T17:40:18.087Z,20.67
2019-01-14T17:42:47.615Z,19.60
2019-01-14T17:45:17.077Z,21.50
2019-01-14T17:47:46.525Z,19.83
2019-01-14T17:50:18.055Z,17.90
2019-01-14T17:52:47.886Z,22.47
2019-01-14T17:55:17.455Z,19.93
2019-01-14T17:57:46.985Z,10.97
2019-01-14T18:00:19.147Z,15.93
2019-01-14T18:02:49.615Z,19.77
2019-01-14T18:05:19.158Z,18.00
2019-01-14T18:07:48.679Z,14.73
2019-01-14T18:10:19.434Z,10.17
2019-01-14T18:12:48.897Z,19.80
2019-01-14T18:15:18.333Z,19.80
2019-01-14T18:17:47.726Z,18.23
2019-01-14T18:20:18.358Z,20.57
2019-01-14T18:22:48.010Z,22.13
2019-01-14T18:25:17.653Z,21.63
2019-01-14T18:27:47.127Z,17.37
2019-01-14T18:30:18.373Z,19.97
2019-01-14T18:32:47.857Z,16.10
2019-01-14T18:35:17.375Z,23.13
2019-01-14T18:37:46.796Z,24.77
2019-01-14T18:40:18.785Z,14.00
2019-01-14T18:42:48.196Z,19.80
2019-01-14T18:45:19.462Z,16.07
2019-01-14T18:47:49.103Z,13.40
2019-01-14T18:50:20.418Z,11.80
2019-01-14T18:52:49.815Z,12.83
2019-01-14T18:55:19.226Z,17.03
2019-01-14T18:57:48.695Z,15.33
2019-01-14T19:00:21.287Z,16.87
2019-01-14T19:02:51.062Z,17.60
2019-01-14T19:05:20.753Z,16.67
2019-01-14T19:07:50.217Z,15.33
2019-01-14T19:10:20.038Z,15.63
2019-01-14T19:12:49.446Z,18.60
2019-01-14T19:15:36.511Z,16.17
2019-01-14T19:18:06.067Z,17.87
2019-01-14T19:20:35.630Z,15.00
2019-01-14T19:23:05.166Z,10.00
2019-01-14T19:25:34.640Z,15.40
2019-01-14T19:28:04.135Z,19.50
2019-01-14T19:30:33.496Z,18.17
2019-01-14T19:33:03.132Z,19.47
2019-01-14T19:35:32.616Z,15.00
2019-01-14T19:38:02.176Z,12.67
2019-01-14T19:40:31.574Z,16.63
2019-01-14T19:43:01.002Z,13.53
2019-01-14T19:45:30.448Z,14.63
2019-01-14T19:47:59.811Z,17.07
2019-01-14T19:50:29.303Z,11.23
2019-01-14T19:52:58.749Z,12.40
2019-01-14T19:55:28.158Z,13.23
2019-01-14T19:57:57.739Z,19.87
2019-01-14T20:00:28.393Z,18.03
2019-01-14T20:02:57.970Z,17.47
2019-01-14T20:05:27.488Z,18.20
2019-01-14T20:07:56.974Z,9.93
2019-01-14T20:10:26.451Z,15.17
2019-01-14T20:12:55.842Z,14.97
2019-01-14T20:15:25.303Z,16.17
2019-01-14T20:17:54.694Z,11.40
2019-01-14T20:20:24.136Z,19.00
2019-01-14T20:22:53.673Z,15.90
2019-01-14T20:25:23.036Z,16.10
2019-01-14T20:27:52.483Z,11.37
2019-01-14T20:30:22.566Z,18.13
2019-01-14T20:32:51.930Z,19.17
2019-01-14T20:35:21.506Z,20.93
2019-01-14T20:37:50.913Z,15.40
2019-01-14T20:40:20.373Z,15.20
2019-01-14T20:42:49.773Z,18.83
2019-01-14T20:45:19.245Z,20.23
2019-01-14T20:47:48.730Z,15.13
2019-01-14T20:50:19.125Z,21.67
2019-01-14T20:52:48.634Z,21.97
2019-01-14T20:55:18.321Z,16.80
2019-01-14T20:57:47.761Z,20.30
2019-01-14T21:00:19.972Z,13.40
2019-01-14T21:02:49.437Z,24.50
2019-01-14T21:05:19.189Z,17.73
2019-01-14T21:07:51.752Z,24.27
2019-01-14T21:10:21.378Z,19.23
2019-01-14T21:12:50.933Z,16.03
2019-01-14T21:15:20.474Z,18.67
2019-01-14T21:17:49.951Z,14.10
2019-01-14T21:20:23.457Z,21.10
2019-01-14T21:22:53.204Z,14.73
2019-01-14T21:25:22.830Z,22.67
2019-01-14T21:27:52.197Z,20.83
2019-01-14T21:30:23.763Z,19.40
2019-01-14T21:32:53.267Z,21.30
2019-01-14T21:35:22.791Z,16.93
2019-01-14T21:37:52.552Z,22.93
2019-01-14T21:40:22.091Z,20.83
2019-01-14T21:42:51.488Z,17.77
2019-01-14T21:45:21.947Z,16.43
2019-01-14T21:47:51.377Z,22.83
2019-01-14T21:50:21.261Z,16.63
2019-01-14T21:52:50.792Z,15.83
2019-01-14T21:55:21.948Z,21.20
2019-01-14T21:57:51.326Z,21.73
2019-01-14T22:00:22.568Z,22.40
2019-01-14T22:02:52.133Z,23.47
2019-01-14T22:05:21.668Z,21.43
2019-01-14T22:07:51.116Z,20.10
2019-01-14T22:10:23.168Z,21.57
2019-01-14T22:12:52.681Z,24.17
2019-01-14T22:15:22.246Z,22.87
2019-01-14T22:17:51.613Z,24.73
2019-01-14T22:20:23.043Z,23.67
2019-01-14T22:22:52.707Z,21.40
2019-01-14T22:25:22.181Z,21.97
2019-01-14T22:27:51.556Z,18.90
2019-01-14T22:30:26.380Z,20.20
2019-01-14T22:32:55.784Z,24.33
2019-01-14T22:35:25.190Z,20.50
2019-01-14T22:37:54.542Z,17.57
2019-01-14T22:40:24.079Z,18.77
2019-01-14T22:42:53.509Z,16.03
2019-01-14T22:45:22.898Z,26.40
2019-01-14T22:47:52.263Z,21.10
2019-01-14T22:50:21.913Z,23.77
2019-01-14T22:52:51.336Z,24.10
2019-01-14T22:55:20.825Z,24.27
2019-01-14T22:57:50.336Z,27.73
2019-01-14T23:00:58.740Z,23.97
2019-01-14T23:03:28.284Z,20.77
2019-01-14T23:05:57.640Z,25.50
2019-01-14T23:08:27.100Z,22.83
2019-01-14T23:10:56.499Z,21.63
2019-01-14T23:13:26.060Z,27.97
2019-01-14T23:15:55.494Z,28.70
2019-01-14T23:18:24.976Z,26.77
2019-01-14T23:20:55.353Z,25.83
2019-01-14T23:23:24.760Z,27.13
2019-01-14T23:25:54.164Z,27.03
2019-01-14T23:28:23.544Z,25.73
2019-01-14T23:30:52.937Z,30.00
2019-01-14T23:33:22.388Z,27.57
2019-01-14T23:35:51.888Z,26.80
2019-01-14T23:38:21.423Z,28.67
2019-01-14T23:40:50.891Z,28.20
2019-01-14T23:43:20.647Z,29.07
2019-01-14T23:45:50.106Z,32.47
2019-01-14T23:48:19.502Z,28.13
2019-01-14T23:50:48.936Z,30.63
2019-01-14T23:53:18.318Z,27.80
2019-01-14T23:55:47.712Z,26.20
2019-01-14T23:58:17.233Z,34.70
